Time;durP1;ratioP1;P1;durP2;ratioP2;P2;SDS_P1;SDS_P2;PMS_P1;PMS_P2;Temp;Humidity;BMP_temperature;BMP_pressure;BME280_temperature;BME280_humidity;BME280_pressure;Samples;Min_cycle;Max_cycle;Signal;HPM_P1;HPM_P2
2023/08/29 00:00:45;;;;;;;3.45;3.10;;;17.40;68.10;;;;;;5060891;28;20667;-75
2023/08/29 00:03:11;;;;;;;4.28;3.25;;;17.40;68.00;;;;;;5060744;28;20832;-76
2023/08/29 00:05:38;;;;;;;3.92;3.33;;;17.40;68.10;;;;;;5061335;28;20024;-75
2023/08/29 00:08:06;;;;;;;5.22;2.97;;;17.30;67.80;;;;;;5061764;28;20041;-76
2023/08/29 00:10:31;;;;;;;5.03;3.28;;;17.30;68.30;;;;;;5059347;28;20040;-75
2023/08/29 00:12:57;;;;;;;4.70;3.25;;;17.30;68.20;;;;;;5075413;28;20028;-75
2023/08/29 00:15:23;;;;;;;5.70;3.38;;;17.30;68.30;;;;;;5059890;28;20033;-74
2023/08/29 00:17:49;;;;;;;3.85;3.08;;;17.30;68.40;;;;;;5061538;28;20028;-75
2023/08/29 00:20:15;;;;;;;4.03;3.08;;;17.30;68.20;;;;;;5059544;28;20048;-75
2023/08/29 00:22:41;;;;;;;4.00;2.80;;;17.20;68.20;;;;;;5060682;28;20040;-76
2023/08/29 00:25:07;;;;;;;5.53;2.80;;;17.20;68.20;;;;;;5060082;28;20097;-75
2023/08/29 00:27:33;;;;;;;4.13;2.85;;;17.20;68.60;;;;;;5060311;28;20123;-74
2023/08/29 00:29:59;;;;;;;4.20;3.05;;;17.30;68.50;;;;;;5046382;28;20045;-74
2023/08/29 00:32:25;;;;;;;4.22;2.78;;;17.20;68.30;;;;;;5061330;28;20115;-74
2023/08/29 00:34:51;;;;;;;5.25;3.50;;;17.20;68.20;;;;;;5060056;28;20143;-74
2023/08/29 00:37:17;;;;;;;3.55;2.78;;;17.20;68.30;;;;;;5063098;28;20649;-75
2023/08/29 00:39:43;;;;;;;3.97;3.15;;;17.10;68.50;;;;;;5060387;28;20037;-74
2023/08/29 00:42:09;;;;;;;4.38;3.38;;;17.20;68.40;;;;;;5058800;28;20408;-75
2023/08/29 00:44:35;;;;;;;3.20;2.78;;;17.10;68.50;;;;;;5059819;28;20441;-75
2023/08/29 00:47:04;;;;;;;4.28;2.90;;;17.10;68.50;;;;;;5059196;28;20060;-75
2023/08/29 00:49:30;;;;;;;5.53;2.80;;;17.10;68.50;;;;;;5058549;28;20024;-75
2023/08/29 00:51:59;;;;;;;4.00;2.83;;;17.10;68.80;;;;;;5060886;28;20060;-75
2023/08/29 00:54:26;;;;;;;5.95;3.22;;;17.00;68.90;;;;;;5061994;28;20032;-74
2023/08/29 00:56:52;;;;;;;5.30;3.17;;;17.10;69.00;;;;;;5058546;28;20030;-74
2023/08/29 00:59:18;;;;;;;3.60;2.72;;;17.00;69.10;;;;;;5062820;28;20028;-75
2023/08/29 01:01:46;;;;;;;6.18;3.05;;;17.00;69.10;;;;;;5060344;28;20488;-75
2023/08/29 01:04:12;;;;;;;5.63;3.63;;;17.00;69.10;;;;;;5059830;28;20457;-74
2023/08/29 01:06:39;;;;;;;4.68;2.70;;;17.00;69.30;;;;;;5058427;28;20036;-74
2023/08/29 01:09:08;;;;;;;5.90;3.20;;;17.00;69.40;;;;;;5059456;28;20407;-75
2023/08/29 01:11:48;;;;;;;4.82;3.05;;;17.00;69.50;;;;;;5062419;28;20119;-77
2023/08/29 01:14:41;;;;;;;4.28;3.15;;;17.00;69.40;;;;;;5059451;28;20037;-74
2023/08/29 01:17:12;;;;;;;3.72;2.78;;;17.00;69.60;;;;;;5026465;28;20449;-74
2023/08/29 01:19:40;;;;;;;5.07;3.00;;;17.00;69.60;;;;;;5057153;28;20047;-74
2023/08/29 01:22:31;;;;;;;5.35;2.80;;;17.00;69.70;;;;;;5062276;28;20028;-75
2023/08/29 01:25:06;;;;;;;4.22;3.30;;;17.00;69.70;;;;;;5062088;28;20511;-75
2023/08/29 01:27:34;;;;;;;4.00;3.05;;;17.00;69.60;;;;;;5057946;28;21432;-75
2023/08/29 01:30:03;;;;;;;4.78;3.25;;;16.90;69.70;;;;;;5060662;28;20025;-76
2023/08/29 01:32:30;;;;;;;4.38;3.25;;;16.90;69.90;;;;;;5058138;28;20036;-76
2023/08/29 01:34:57;;;;;;;4.03;3.40;;;16.90;69.60;;;;;;5058672;28;20415;-75
2023/08/29 01:37:23;;;;;;;4.90;3.20;;;16.90;69.60;;;;;;5057597;28;20222;-76
2023/08/29 01:39:49;;;;;;;5.75;3.47;;;16.90;70.00;;;;;;5059865;28;20290;-75
2023/08/29 01:42:16;;;;;;;4.30;2.97;;;16.90;70.00;;;;;;5057313;28;20039;-76
2023/08/29 01:44:42;;;;;;;4.45;2.90;;;16.90;70.20;;;;;;5059583;28;20032;-76
2023/08/29 01:47:08;;;;;;;4.60;2.92;;;16.90;69.90;;;;;;5058922;28;20491;-76
2023/08/29 01:49:36;;;;;;;5.82;3.40;;;16.90;70.00;;;;;;5056745;28;20420;-76
2023/08/29 01:52:02;;;;;;;6.25;2.97;;;16.80;70.10;;;;;;5062026;28;20041;-76
2023/08/29 01:54:28;;;;;;;5.97;3.13;;;16.80;70.10;;;;;;5059717;28;20043;-76
2023/08/29 01:56:57;;;;;;;7.15;3.35;;;16.80;70.20;;;;;;5059015;28;20070;-77
2023/08/29 01:59:24;;;;;;;4.20;3.08;;;16.80;70.30;;;;;;5043923;28;20043;-76
2023/08/29 02:01:50;;;;;;;4.45;3.75;;;16.80;70.40;;;;;;5061275;28;20024;-76
2023/08/29 02:04:18;;;;;;;5.00;3.13;;;16.80;70.50;;;;;;5059078;28;20036;-76
2023/08/29 02:06:44;;;;;;;5.03;3.50;;;16.80;70.60;;;;;;5057956;28;20041;-77
2023/08/29 02:09:10;;;;;;;5.10;3.58;;;16.80;70.70;;;;;;5061663;28;20043;-76
2023/08/29 02:11:36;;;;;;;4.60;3.55;;;16.80;70.80;;;;;;5062102;28;20036;-77
2023/08/29 02:14:02;;;;;;;4.70;3.20;;;16.80;70.70;;;;;;5059032;28;20442;-76
2023/08/29 02:16:30;;;;;;;4.38;2.95;;;16.80;70.60;;;;;;5061268;28;20395;-77
2023/08/29 02:18:56;;;;;;;5.07;3.42;;;16.80;70.60;;;;;;5057434;28;20525;-77
2023/08/29 02:21:22;;;;;;;4.80;3.33;;;16.70;70.60;;;;;;5061286;28;20040;-77
2023/08/29 02:23:48;;;;;;;4.70;3.50;;;16.70;70.70;;;;;;5062524;28;20410;-76
2023/08/29 02:26:14;;;;;;;5.43;3.78;;;16.80;70.70;;;;;;5060629;28;20529;-77
2023/08/29 02:28:40;;;;;;;5.60;3.75;;;16.70;70.80;;;;;;5063513;28;20058;-77
2023/08/29 02:31:10;;;;;;;3.92;3.22;;;16.70;70.90;;;;;;5061946;28;20123;-77
2023/08/29 02:33:37;;;;;;;6.13;3.63;;;16.70;71.00;;;;;;5064548;28;20044;-77
2023/08/29 02:36:06;;;;;;;5.50;3.90;;;16.70;70.90;;;;;;5065468;28;20033;-76
2023/08/29 02:38:33;;;;;;;4.82;3.70;;;16.70;71.00;;;;;;5066358;28;20059;-77
2023/08/29 02:40:59;;;;;;;4.20;3.50;;;16.70;71.00;;;;;;5062195;28;20302;-76
2023/08/29 02:43:27;;;;;;;5.45;3.60;;;16.70;70.90;;;;;;5062394;28;20040;-77
2023/08/29 02:45:54;;;;;;;6.88;3.50;;;16.70;70.80;;;;;;5061999;28;20314;-77
2023/08/29 02:48:20;;;;;;;4.25;3.53;;;16.70;71.00;;;;;;5061403;28;20083;-76
2023/08/29 02:50:49;;;;;;;4.20;3.25;;;16.70;71.00;;;;;;5064553;28;20112;-78
2023/08/29 02:53:19;;;;;;;4.40;3.30;;;16.70;71.10;;;;;;5060513;28;20041;-78
2023/08/29 02:55:46;;;;;;;6.03;3.45;;;16.70;71.30;;;;;;5061818;28;20475;-78
2023/08/29 02:58:12;;;;;;;6.85;3.53;;;16.70;71.30;;;;;;5064976;28;20033;-78
2023/08/29 03:00:40;;;;;;;4.03;3.00;;;16.70;71.50;;;;;;5061464;28;20044;-77
2023/08/29 03:03:06;;;;;;;7.43;3.88;;;16.70;71.50;;;;;;5060874;28;20040;-78
2023/08/29 03:05:32;;;;;;;4.85;3.45;;;16.70;71.30;;;;;;5066134;28;20039;-77
2023/08/29 03:08:00;;;;;;;4.35;3.30;;;16.70;71.20;;;;;;5064477;28;20029;-76
2023/08/29 03:10:27;;;;;;;4.50;3.78;;;16.70;71.40;;;;;;5062772;28;20115;-77
2023/08/29 03:12:53;;;;;;;7.88;3.67;;;16.70;71.40;;;;;;5061562;28;20574;-78
2023/08/29 03:15:19;;;;;;;5.82;3.40;;;16.70;71.70;;;;;;5060135;28;20427;-78
2023/08/29 03:17:45;;;;;;;5.10;3.85;;;16.80;71.70;;;;;;5063494;28;20032;-79
2023/08/29 03:20:12;;;;;;;5.03;3.30;;;16.80;71.40;;;;;;5064323;28;20132;-80
2023/08/29 03:22:38;;;;;;;6.90;3.85;;;16.80;71.60;;;;;;5065636;28;20527;-79
2023/08/29 03:25:05;;;;;;;7.47;4.05;;;16.80;71.60;;;;;;5061106;28;20041;-78
2023/08/29 03:27:31;;;;;;;5.90;4.05;;;16.80;71.50;;;;;;5065608;28;20033;-79
2023/08/29 03:29:58;;;;;;;5.50;3.80;;;16.80;71.60;;;;;;5061538;28;20029;-79
2023/08/29 03:32:24;;;;;;;6.63;3.72;;;16.80;71.40;;;;;;5061317;28;20032;-79
2023/08/29 03:34:55;;;;;;;5.45;4.15;;;16.80;71.50;;;;;;5063081;28;20033;-79
2023/08/29 03:37:21;;;;;;;6.88;4.13;;;16.80;71.50;;;;;;5061081;28;20568;-78
2023/08/29 03:39:47;;;;;;;6.07;4.05;;;16.80;71.60;;;;;;5060349;28;20028;-78
2023/08/29 03:42:13;;;;;;;5.55;4.05;;;16.90;71.70;;;;;;5060964;28;20797;-79
2023/08/29 03:44:38;;;;;;;6.82;4.10;;;16.90;71.40;;;;;;5061881;28;20029;-78
2023/08/29 03:47:05;;;;;;;6.53;4.40;;;16.90;71.30;;;;;;5060191;28;20598;-77
2023/08/29 03:49:30;;;;;;;5.80;4.03;;;16.90;71.40;;;;;;5056907;28;20629;-79
2023/08/29 03:51:56;;;;;;;8.00;4.30;;;16.90;71.40;;;;;;5060540;28;20068;-80
2023/08/29 03:54:22;;;;;;;6.63;4.55;;;16.90;71.40;;;;;;5062031;28;20033;-78
2023/08/29 03:56:48;;;;;;;7.15;4.65;;;16.90;72.10;;;;;;5060756;28;20036;-79
2023/08/29 03:59:15;;;;;;;7.03;4.28;;;16.90;71.40;;;;;;5060402;28;20401;-78
2023/08/29 04:01:41;;;;;;;7.95;4.60;;;16.90;71.40;;;;;;5059709;28;20078;-78
2023/08/29 04:04:07;;;;;;;6.40;3.80;;;17.00;71.60;;;;;;5061327;28;20035;-79
2023/08/29 04:06:35;;;;;;;8.43;4.00;;;17.00;71.60;;;;;;5064028;28;20691;-80
2023/08/29 04:09:03;;;;;;;6.78;4.30;;;17.00;71.50;;;;;;5046506;28;20033;-80
2023/08/29 04:11:29;;;;;;;6.30;4.22;;;17.00;71.50;;;;;;5062530;28;20033;-79
2023/08/29 04:13:56;;;;;;;6.03;4.15;;;17.10;71.50;;;;;;5058728;28;20711;-77
2023/08/29 04:16:22;;;;;;;10.00;4.53;;;17.10;71.40;;;;;;5058098;28;20179;-77
2023/08/29 04:18:48;;;;;;;4.63;3.75;;;17.10;71.50;;;;;;5060040;28;20465;-77
2023/08/29 04:21:14;;;;;;;6.70;4.40;;;17.10;71.30;;;;;;5060499;28;20032;-77
2023/08/29 04:23:40;;;;;;;9.00;4.57;;;17.10;71.30;;;;;;5058852;28;20060;-76
2023/08/29 04:26:06;;;;;;;7.07;4.45;;;17.20;71.60;;;;;;5057998;28;20058;-76
2023/08/29 04:28:32;;;;;;;9.25;4.72;;;17.20;71.30;;;;;;5059244;28;20051;-74
2023/08/29 04:31:14;;;;;;;7.30;4.60;;;17.20;71.40;;;;;;5060373;28;20112;-75
2023/08/29 04:33:42;;;;;;;6.13;4.30;;;17.20;71.40;;;;;;5063064;28;20033;-76
2023/08/29 04:36:08;;;;;;;6.97;4.03;;;17.30;71.40;;;;;;5062645;28;20040;-76
2023/08/29 04:38:35;;;;;;;8.60;4.00;;;17.30;71.40;;;;;;5057588;28;20037;-76
2023/08/29 04:41:01;;;;;;;7.68;4.25;;;17.30;71.30;;;;;;5060528;28;20122;-77
2023/08/29 04:43:27;;;;;;;6.43;4.00;;;17.40;71.10;;;;;;5060360;28;20041;-77
2023/08/29 04:45:53;;;;;;;6.88;4.38;;;17.50;71.70;;;;;;5062256;28;20522;-76
2023/08/29 04:48:19;;;;;;;5.72;3.95;;;17.70;70.80;;;;;;5047516;28;20137;-77
2023/08/29 04:50:45;;;;;;;6.80;4.03;;;17.90;70.60;;;;;;5060974;28;20035;-76
2023/08/29 04:53:11;;;;;;;5.82;3.15;;;18.00;70.40;;;;;;5057414;28;20037;-77
2023/08/29 04:55:38;;;;;;;6.97;3.55;;;18.20;69.90;;;;;;5062538;28;20029;-77
2023/08/29 04:58:04;;;;;;;5.80;3.67;;;18.40;69.30;;;;;;5029454;28;20035;-77
2023/08/29 05:00:30;;;;;;;5.55;3.58;;;18.50;68.90;;;;;;5046932;28;20037;-77
2023/08/29 05:02:56;;;;;;;6.47;3.50;;;18.70;68.90;;;;;;5059437;28;20029;-77
2023/08/29 05:05:22;;;;;;;5.28;3.25;;;18.90;68.60;;;;;;5077924;28;20036;-77
2023/08/29 05:07:48;;;;;;;8.70;3.78;;;19.00;68.40;;;;;;5059570;28;20040;-77
2023/08/29 05:10:14;;;;;;;4.18;3.42;;;19.10;67.60;;;;;;5046135;28;20033;-77
2023/08/29 05:12:41;;;;;;;7.55;3.78;;;19.10;66.80;;;;;;5057971;28;20503;-77
2023/08/29 05:15:08;;;;;;;8.02;3.78;;;19.10;66.70;;;;;;5059616;28;20035;-77
2023/08/29 05:17:34;;;;;;;5.47;3.38;;;19.20;66.30;;;;;;5060867;28;20032;-77
2023/08/29 05:20:00;;;;;;;4.75;3.55;;;19.20;66.40;;;;;;5058368;28;20507;-77
2023/08/29 05:22:26;;;;;;;6.82;3.28;;;19.30;66.00;;;;;;5057097;28;20608;-77
2023/08/29 05:24:52;;;;;;;6.45;3.90;;;19.40;65.70;;;;;;5058329;28;20075;-76
2023/08/29 05:27:18;;;;;;;4.95;3.10;;;19.50;65.50;;;;;;5058331;28;20040;-77
2023/08/29 05:29:44;;;;;;;7.10;3.10;;;19.60;65.80;;;;;;5059657;28;20024;-77
2023/08/29 05:32:10;;;;;;;6.28;3.50;;;19.70;65.50;;;;;;5061657;28;20074;-78
2023/08/29 05:34:36;;;;;;;5.95;3.47;;;19.90;65.00;;;;;;5060374;28;20052;-74
2023/08/29 05:37:03;;;;;;;5.93;3.17;;;19.90;64.60;;;;;;5059340;28;20101;-77
2023/08/29 05:39:29;;;;;;;6.00;3.35;;;19.90;64.30;;;;;;5059935;28;20105;-77
2023/08/29 05:41:55;;;;;;;6.38;3.58;;;19.80;64.20;;;;;;5060385;28;20029;-77
2023/08/29 05:44:21;;;;;;;9.13;3.78;;;19.80;64.10;;;;;;5059649;28;20419;-77
2023/08/29 05:46:47;;;;;;;9.05;3.83;;;19.70;64.10;;;;;;5057968;28;20082;-76
2023/08/29 05:49:13;;;;;;;9.07;3.30;;;19.70;64.10;;;;;;5057376;28;20050;-77
2023/08/29 05:51:39;;;;;;;4.88;3.38;;;19.70;64.40;;;;;;5059999;28;20037;-76
2023/08/29 05:54:05;;;;;;;6.65;4.20;;;19.70;64.50;;;;;;5059574;28;20043;-77
2023/08/29 05:56:31;;;;;;;8.45;3.67;;;19.60;64.30;;;;;;5061114;28;20040;-77
2023/08/29 05:58:57;;;;;;;5.95;3.45;;;19.60;64.50;;;;;;5059065;28;20037;-76
2023/08/29 06:01:23;;;;;;;5.97;3.20;;;19.60;64.50;;;;;;5060318;28;20036;-76
2023/08/29 06:03:49;;;;;;;6.60;3.20;;;19.60;64.60;;;;;;5059046;28;20033;-76
2023/08/29 06:06:15;;;;;;;9.45;3.65;;;19.60;64.70;;;;;;5058611;28;20105;-76
2023/08/29 06:08:41;;;;;;;8.82;3.70;;;19.50;64.60;;;;;;5057883;28;20029;-77
2023/08/29 06:11:07;;;;;;;6.00;3.17;;;19.50;64.70;;;;;;5058750;28;20207;-77
2023/08/29 06:13:33;;;;;;;4.82;3.15;;;19.50;64.80;;;;;;5058970;28;20608;-77
2023/08/29 06:15:59;;;;;;;6.45;3.72;;;19.40;65.00;;;;;;5060548;28;20045;-78
2023/08/29 06:18:25;;;;;;;4.00;3.03;;;19.40;65.10;;;;;;5059260;28;20032;-76
2023/08/29 06:20:51;;;;;;;6.25;3.15;;;19.40;65.10;;;;;;5059055;28;20036;-76
2023/08/29 06:23:17;;;;;;;9.90;3.80;;;19.40;65.20;;;;;;5057518;28;20040;-77
2023/08/29 06:25:44;;;;;;;5.72;3.17;;;19.40;65.30;;;;;;5058654;28;20101;-76
2023/08/29 06:28:10;;;;;;;4.45;3.15;;;19.30;65.20;;;;;;5057004;28;20033;-76
2023/08/29 06:30:37;;;;;;;6.15;3.13;;;19.30;65.40;;;;;;5059827;28;20033;-74
2023/08/29 06:33:06;;;;;;;6.03;3.45;;;19.30;65.70;;;;;;5058357;28;20035;-74
2023/08/29 06:35:36;;;;;;;8.35;3.10;;;19.30;65.80;;;;;;5058872;28;20032;-73
2023/08/29 06:38:02;;;;;;;6.57;3.30;;;19.20;65.80;;;;;;5058288;28;20039;-74
2023/08/29 06:40:28;;;;;;;7.32;3.30;;;19.20;65.80;;;;;;5060074;28;20047;-74
2023/08/29 06:42:54;;;;;;;7.85;3.80;;;19.20;65.80;;;;;;5058347;28;20056;-73
2023/08/29 06:45:22;;;;;;;6.63;3.25;;;19.20;66.10;;;;;;5058727;28;20459;-73
2023/08/29 06:47:47;;;;;;;7.45;3.50;;;19.20;66.20;;;;;;5060352;28;20068;-76
2023/08/29 06:50:14;;;;;;;4.95;3.40;;;19.20;66.40;;;;;;5069238;28;20519;-77
2023/08/29 06:52:39;;;;;;;4.65;3.40;;;19.10;66.40;;;;;;5064829;28;20090;-77
2023/08/29 06:55:06;;;;;;;6.47;3.50;;;19.20;66.70;;;;;;5066174;28;20037;-77
2023/08/29 06:57:32;;;;;;;5.18;3.50;;;19.10;66.90;;;;;;5068361;28;20059;-74
2023/08/29 06:59:58;;;;;;;5.43;3.65;;;19.10;66.80;;;;;;5066151;28;20032;-74
2023/08/29 07:02:25;;;;;;;7.95;3.63;;;19.10;67.40;;;;;;5072249;28;20044;-74
2023/08/29 07:04:51;;;;;;;5.55;3.35;;;19.10;67.30;;;;;;5069700;28;20032;-75
2023/08/29 07:07:17;;;;;;;6.13;3.05;;;19.10;68.00;;;;;;5071465;28;20035;-74
2023/08/29 07:09:43;;;;;;;10.38;3.17;;;19.10;67.60;;;;;;5070906;28;20069;-76
2023/08/29 07:12:09;;;;;;;7.50;3.22;;;19.10;67.60;;;;;;5070590;28;20044;-75
2023/08/29 07:14:35;;;;;;;5.13;3.28;;;19.10;68.10;;;;;;5072410;28;20032;-76
2023/08/29 07:17:01;;;;;;;8.60;3.50;;;19.10;67.90;;;;;;5070270;28;20040;-76
2023/08/29 07:19:28;;;;;;;7.47;3.35;;;19.10;67.70;;;;;;5069335;28;20293;-74
2023/08/29 07:21:55;;;;;;;7.70;3.38;;;19.10;67.60;;;;;;5071053;28;20028;-74
2023/08/29 07:24:21;;;;;;;4.88;3.08;;;19.10;67.60;;;;;;5063152;28;20175;-74
2023/08/29 07:26:47;;;;;;;6.20;3.58;;;19.10;67.50;;;;;;5063005;28;20036;-72
2023/08/29 07:29:14;;;;;;;6.93;3.17;;;19.10;68.00;;;;;;5061566;28;20036;-75
2023/08/29 07:31:40;;;;;;;5.25;3.05;;;19.10;68.80;;;;;;5063226;28;20048;-75
2023/08/29 07:34:06;;;;;;;4.38;2.80;;;19.10;69.00;;;;;;5061545;28;20036;-73
2023/08/29 07:36:31;;;;;;;4.93;3.05;;;19.10;69.20;;;;;;5059687;28;20206;-74
2023/08/29 07:38:57;;;;;;;7.80;3.50;;;19.10;69.70;;;;;;5062273;28;20044;-74
2023/08/29 07:41:23;;;;;;;5.32;3.30;;;19.10;69.80;;;;;;5061320;28;20411;-74
2023/08/29 07:43:49;;;;;;;6.25;3.13;;;19.10;69.40;;;;;;5060152;28;20036;-74
2023/08/29 07:46:15;;;;;;;6.57;3.80;;;19.20;69.30;;;;;;5059942;28;20056;-75
2023/08/29 07:48:41;;;;;;;9.55;3.35;;;19.20;69.70;;;;;;5062790;28;20177;-74
2023/08/29 07:51:07;;;;;;;9.07;3.55;;;19.20;69.60;;;;;;5059813;28;20036;-74
2023/08/29 07:53:33;;;;;;;5.85;3.20;;;19.20;69.90;;;;;;5061992;28;20042;-73
2023/08/29 07:55:59;;;;;;;8.35;4.13;;;19.20;70.60;;;;;;5061521;28;20120;-75
2023/08/29 07:58:26;;;;;;;9.25;3.88;;;19.20;70.40;;;;;;5060521;28;20036;-75
2023/08/29 08:00:53;;;;;;;9.20;3.45;;;19.20;70.70;;;;;;5061635;28;20039;-73
2023/08/29 08:03:19;;;;;;;6.85;3.72;;;19.20;70.40;;;;;;5059264;28;20074;-72
2023/08/29 08:05:45;;;;;;;9.38;3.80;;;19.20;70.50;;;;;;5059720;28;20032;-73
2023/08/29 08:08:11;;;;;;;4.90;3.55;;;19.30;70.60;;;;;;5060202;28;20033;-76
2023/08/29 08:10:37;;;;;;;7.95;3.65;;;19.30;70.70;;;;;;5060623;28;20036;-75
2023/08/29 08:13:04;;;;;;;8.45;3.90;;;19.20;70.40;;;;;;5059561;28;20457;-75
2023/08/29 08:15:30;;;;;;;8.50;3.60;;;19.20;70.20;;;;;;5064453;28;20155;-75
2023/08/29 08:17:56;;;;;;;8.00;4.10;;;19.20;70.00;;;;;;5059812;28;20035;-76
2023/08/29 08:20:22;;;;;;;6.65;3.45;;;19.30;69.70;;;;;;5062790;28;20554;-73
2023/08/29 08:22:48;;;;;;;8.93;4.32;;;19.20;70.00;;;;;;5060483;28;20074;-73
2023/08/29 08:25:13;;;;;;;5.72;3.28;;;19.30;70.00;;;;;;5059138;28;20131;-74
2023/08/29 08:27:41;;;;;;;5.68;3.45;;;19.30;70.20;;;;;;5060905;28;20037;-72
2023/08/29 08:30:08;;;;;;;10.65;3.50;;;19.30;70.30;;;;;;5060290;28;20085;-79
2023/08/29 08:32:34;;;;;;;14.35;4.45;;;19.30;70.90;;;;;;5060770;28;20534;-77
2023/08/29 08:35:00;;;;;;;13.27;4.10;;;19.40;73.60;;;;;;5059404;28;20029;-76
2023/08/29 08:37:26;;;;;;;6.18;3.20;;;19.50;74.70;;;;;;5059967;28;20055;-76
2023/08/29 08:39:53;;;;;;;8.98;4.07;;;19.60;74.80;;;;;;5061988;28;20562;-76
2023/08/29 08:42:19;;;;;;;13.80;3.67;;;19.60;73.20;;;;;;5059688;28;20171;-76
2023/08/29 08:44:45;;;;;;;8.30;3.83;;;19.60;72.00;;;;;;5061188;28;20085;-75
2023/08/29 08:47:13;;;;;;;8.75;4.18;;;19.60;71.30;;;;;;5058503;28;20037;-76
2023/08/29 08:49:40;;;;;;;10.95;4.13;;;19.60;70.50;;;;;;5059504;28;20067;-75
2023/08/29 08:52:10;;;;;;;30.38;3.75;;;19.60;70.30;;;;;;5060183;28;20072;-76
2023/08/29 08:54:36;;;;;;;8.02;4.00;;;19.60;70.10;;;;;;5060466;28;20033;-76
2023/08/29 08:57:02;;;;;;;7.43;3.88;;;19.60;70.10;;;;;;5059297;28;20032;-76
2023/08/29 08:59:28;;;;;;;9.30;3.75;;;19.50;70.10;;;;;;5060513;28;20033;-75
2023/08/29 09:01:55;;;;;;;7.55;3.33;;;19.50;69.90;;;;;;5059646;28;20036;-77
2023/08/29 09:04:22;;;;;;;8.52;3.92;;;19.50;69.80;;;;;;5060250;28;20037;-76
2023/08/29 09:06:49;;;;;;;7.75;3.90;;;19.50;70.10;;;;;;5059183;28;20033;-76
2023/08/29 09:09:19;;;;;;;5.93;3.90;;;19.50;69.50;;;;;;5058921;28;20491;-77
2023/08/29 09:11:53;;;;;;;10.07;3.58;;;19.50;69.40;;;;;;5059291;28;20036;-76
2023/08/29 09:14:20;;;;;;;9.10;3.90;;;19.50;69.10;;;;;;5061153;28;20076;-75
2023/08/29 09:16:46;;;;;;;8.55;3.58;;;19.50;69.10;;;;;;5060223;28;20033;-75
2023/08/29 09:19:16;;;;;;;6.60;4.28;;;19.50;69.20;;;;;;5057841;28;20467;-76
2023/08/29 09:21:43;;;;;;;7.65;3.72;;;19.50;68.80;;;;;;5059589;28;20118;-75
2023/08/29 09:24:13;;;;;;;7.30;3.83;;;19.50;68.70;;;;;;5058233;28;20044;-77
2023/08/29 09:26:40;;;;;;;7.93;3.65;;;19.50;68.90;;;;;;5058518;28;20039;-75
2023/08/29 09:29:25;;;;;;;5.85;3.83;;;19.50;69.00;;;;;;5057734;28;20033;-75
2023/08/29 09:31:51;;;;;;;6.97;4.03;;;19.50;69.20;;;;;;5058092;28;20542;-74
2023/08/29 09:34:27;;;;;;;7.18;3.50;;;19.50;69.40;;;;;;5059699;28;20041;-75
2023/08/29 09:36:54;;;;;;;7.80;3.60;;;19.50;69.70;;;;;;5058353;28;20457;-75
2023/08/29 09:39:21;;;;;;;7.25;3.38;;;19.50;69.70;;;;;;5058195;28;20048;-75
2023/08/29 09:42:08;;;;;;;4.97;3.47;;;19.50;70.00;;;;;;5060372;28;20028;-76
2023/08/29 09:44:39;;;;;;;7.00;3.75;;;19.50;70.10;;;;;;5059133;28;20032;-76
2023/08/29 09:47:06;;;;;;;9.63;4.00;;;19.50;69.90;;;;;;5058986;28;20044;-77
2023/08/29 09:49:38;;;;;;;6.50;3.80;;;19.50;69.90;;;;;;5059227;28;20037;-75
2023/08/29 09:52:04;;;;;;;8.50;3.97;;;19.50;70.10;;;;;;5058549;28;20055;-76
2023/08/29 09:54:32;;;;;;;9.52;3.95;;;19.50;70.20;;;;;;5059931;28;20183;-77
2023/08/29 09:57:05;;;;;;;5.78;3.72;;;19.50;70.40;;;;;;5060478;28;20043;-76
2023/08/29 09:59:34;;;;;;;8.85;3.95;;;19.50;70.40;;;;;;5059200;28;20281;-76
2023/08/29 10:02:02;;;;;;;7.57;4.03;;;19.50;70.40;;;;;;5058923;28;20474;-75
2023/08/29 10:04:30;;;;;;;7.82;3.75;;;19.60;70.30;;;;;;5060256;28;20123;-76
2023/08/29 10:06:59;;;;;;;5.53;4.30;;;19.60;70.40;;;;;;5058538;28;20036;-75
2023/08/29 10:09:25;;;;;;;7.43;4.13;;;19.60;70.20;;;;;;5060381;28;20131;-75
2023/08/29 10:11:53;;;;;;;9.38;4.20;;;19.70;70.40;;;;;;5058758;28;20074;-75
2023/08/29 10:14:20;;;;;;;6.05;3.83;;;19.60;70.30;;;;;;5058094;28;20059;-75
2023/08/29 10:16:48;;;;;;;8.63;3.88;;;19.60;70.00;;;;;;5060275;28;20033;-76
2023/08/29 10:19:14;;;;;;;7.15;3.53;;;19.70;70.10;;;;;;5059950;28;20515;-75
2023/08/29 10:21:42;;;;;;;5.80;3.80;;;19.70;70.20;;;;;;5059656;28;20055;-75
2023/08/29 10:24:12;;;;;;;7.47;3.45;;;19.60;70.40;;;;;;5058683;28;20056;-73
2023/08/29 10:26:38;;;;;;;6.88;3.97;;;19.70;71.10;;;;;;5060275;28;20029;-74
2023/08/29 10:29:05;;;;;;;6.45;3.50;;;19.70;70.30;;;;;;5058641;28;20035;-75
2023/08/29 10:31:34;;;;;;;6.57;4.00;;;19.70;70.30;;;;;;5056919;28;20067;-75
2023/08/29 10:34:03;;;;;;;7.80;3.97;;;19.70;70.20;;;;;;5057626;28;20545;-74
2023/08/29 10:36:29;;;;;;;6.93;3.80;;;19.70;69.80;;;;;;5063880;28;20036;-74
2023/08/29 10:38:59;;;;;;;7.13;4.20;;;19.70;69.60;;;;;;5061593;28;20112;-76
2023/08/29 10:41:25;;;;;;;8.40;3.75;;;19.70;69.60;;;;;;5063150;28;20040;-76
2023/08/29 10:44:35;;;;;;;9.40;3.85;;;19.70;69.70;;;;;;5061937;28;20056;-76
2023/08/29 10:47:27;;;;;;;9.50;4.05;;;19.70;69.90;;;;;;5054886;28;20036;-75
2023/08/29 10:50:02;;;;;;;4.07;3.25;;;19.70;70.00;;;;;;5064099;28;20441;-76
2023/08/29 10:52:41;;;;;;;10.07;4.50;;;19.70;69.90;;;;;;5059355;28;20565;-76
2023/08/29 10:55:27;;;;;;;7.75;3.70;;;19.70;69.50;;;;;;5066178;28;20032;-76
2023/08/29 10:57:58;;;;;;;6.80;3.90;;;19.70;69.50;;;;;;5061692;28;21049;-76
2023/08/29 11:00:51;;;;;;;6.07;3.88;;;19.70;69.40;;;;;;5061390;28;20044;-76
2023/08/29 11:03:55;;;;;;;7.18;3.08;;;19.70;69.50;;;;;;5060288;28;20120;-76
2023/08/29 11:06:25;;;;;;;7.25;3.50;;;19.70;69.60;;;;;;5062070;28;20044;-75
2023/08/29 11:09:23;;;;;;;8.35;4.03;;;19.70;69.80;;;;;;5059855;28;20036;-75
2023/08/29 11:12:09;;;;;;;5.68;3.65;;;19.70;69.70;;;;;;5062437;28;20049;-76
2023/08/29 11:14:54;;;;;;;6.88;3.83;;;19.70;69.80;;;;;;5060590;28;20048;-76
2023/08/29 11:17:23;;;;;;;6.50;4.10;;;19.70;69.80;;;;;;5061680;28;20484;-75
2023/08/29 11:19:54;;;;;;;11.25;3.90;;;19.70;69.10;;;;;;5061676;28;20390;-76
2023/08/29 11:22:22;;;;;;;7.10;3.65;;;19.70;70.00;;;;;;5060424;28;20218;-75
2023/08/29 11:24:55;;;;;;;4.97;3.40;;;19.90;71.60;;;;;;5061730;28;20072;-74
2023/08/29 11:27:26;;;;;;;4.47;3.60;;;19.90;72.10;;;;;;5063067;28;20191;-74
2023/08/29 11:29:53;;;;;;;7.80;3.35;;;20.00;72.10;;;;;;5061865;28;20507;-76
2023/08/29 11:32:19;;;;;;;8.20;3.42;;;20.10;72.00;;;;;;5059905;28;20044;-76
2023/08/29 11:34:52;;;;;;;3.92;3.33;;;20.20;71.90;;;;;;5060763;28;20550;-75
2023/08/29 11:37:18;;;;;;;5.78;3.40;;;20.20;72.20;;;;;;5061202;28;20063;-75
2023/08/29 11:39:52;;;;;;;5.95;3.47;;;20.20;72.10;;;;;;5060330;28;20064;-75
2023/08/29 11:42:20;;;;;;;6.85;3.50;;;20.30;72.10;;;;;;5060988;28;20143;-75
2023/08/29 11:44:47;;;;;;;5.10;3.60;;;20.40;71.90;;;;;;5061030;28;20082;-76
2023/08/29 11:47:14;;;;;;;7.63;3.28;;;20.40;71.80;;;;;;5059320;28;20048;-75
2023/08/29 11:49:54;;;;;;;6.63;3.58;;;20.50;71.50;;;;;;5059444;28;20043;-75
2023/08/29 11:52:29;;;;;;;8.23;3.55;;;20.50;71.40;;;;;;5062411;28;20041;-75
2023/08/29 11:55:00;;;;;;;5.93;3.58;;;20.50;71.00;;;;;;5060875;28;20052;-74
2023/08/29 11:57:30;;;;;;;6.53;3.65;;;20.60;71.10;;;;;;5061389;28;20041;-75
2023/08/29 11:59:59;;;;;;;6.07;3.35;;;20.60;70.80;;;;;;5060622;28;20410;-75
2023/08/29 12:02:26;;;;;;;8.50;3.83;;;20.70;70.90;;;;;;5061236;28;20037;-75
2023/08/29 12:04:56;;;;;;;6.22;3.55;;;20.70;71.10;;;;;;5061388;28;20040;-78
2023/08/29 12:07:23;;;;;;;6.00;3.50;;;20.70;70.60;;;;;;5060268;28;20075;-75
2023/08/29 12:09:52;;;;;;;5.88;3.75;;;20.80;70.50;;;;;;5060081;28;20491;-77
2023/08/29 12:12:33;;;;;;;8.38;3.78;;;20.80;70.20;;;;;;5062966;28;20086;-74
2023/08/29 12:14:59;;;;;;;7.43;4.13;;;20.80;70.20;;;;;;5070225;28;20028;-75
2023/08/29 12:17:40;;;;;;;6.82;3.90;;;20.80;69.80;;;;;;5069391;28;20129;-75
2023/08/29 12:20:15;;;;;;;7.55;3.83;;;20.90;69.90;;;;;;5061992;28;20123;-77
2023/08/29 12:22:46;;;;;;;6.50;3.53;;;20.90;69.80;;;;;;5059609;28;20206;-74
2023/08/29 12:25:13;;;;;;;8.18;4.18;;;20.90;69.70;;;;;;5059741;28;20040;-76
2023/08/29 12:27:44;;;;;;;5.72;3.53;;;20.90;69.70;;;;;;5060656;28;20028;-75
2023/08/29 12:30:13;;;;;;;7.60;4.05;;;21.00;69.80;;;;;;5059325;28;20087;-75
2023/08/29 12:32:40;;;;;;;6.43;3.58;;;21.00;69.70;;;;;;5059126;28;20583;-75
2023/08/29 12:35:07;;;;;;;6.32;3.60;;;21.00;69.60;;;;;;5057346;28;20032;-76
2023/08/29 12:37:33;;;;;;;7.30;3.72;;;21.00;69.60;;;;;;5059875;28;20063;-75
2023/08/29 12:39:59;;;;;;;6.07;3.60;;;21.00;69.50;;;;;;5060363;28;20036;-75
2023/08/29 12:42:25;;;;;;;7.85;3.67;;;21.00;69.50;;;;;;5060039;28;20036;-75
2023/08/29 12:44:51;;;;;;;7.75;3.78;;;21.10;69.60;;;;;;5059565;28;20037;-76
2023/08/29 12:47:17;;;;;;;6.93;3.90;;;21.10;69.50;;;;;;5060929;28;20143;-75
2023/08/29 12:49:42;;;;;;;6.13;3.90;;;21.10;69.30;;;;;;5060729;28;20175;-76